Weather at Imperial County Airport

Public forecast

Using degrees Fahrenheit for public forecast. Weather courtesy of forecast.io.

Current aviation weather report (METAR) for Imperial County Airport

Retrieved 2021/03/07 18:53 UTC (2 hours ago):

KIPL 071853Z AUTO VRB03KT 10SM CLR 22/06 A2997 RMK AO2 SLP148 T02170056

Aviation forecast (TAF) for Imperial County Airport

Retrieved 2021/03/07 18:42 UTC (2 hours ago):

TAF KIPL 071739Z 0718/0818 VRB04KT P6SM OVC250 TEMPO 0720/0724 16006KT FM080100 25012KT P6SM BKN150 FM081200 26005KT P6SM FEW250